sensor_id;sensor_type;location;lat;lon;timestamp;pressure;altitude;pressure_sealevel;temperature;humidity
59650;BME280;46162;57.568;25.814;2023-08-06T00:02:06;100649.47;;;17.00;100.00
59650;BME280;46162;57.568;25.814;2023-08-06T00:04:34;100651.28;;;16.93;100.00
59650;BME280;46162;57.568;25.814;2023-08-06T00:07:04;100661.28;;;17.07;100.00
59650;BME280;46162;57.568;25.814;2023-08-06T00:09:34;100668.91;;;17.12;100.00
59650;BME280;46162;57.568;25.814;2023-08-06T00:12:04;100650.53;;;16.99;100.00
59650;BME280;46162;57.568;25.814;2023-08-06T00:14:33;100650.56;;;17.06;100.00
59650;BME280;46162;57.568;25.814;2023-08-06T00:17:02;100652.84;;;17.02;100.00
59650;BME280;46162;57.568;25.814;2023-08-06T00:19:32;100650.38;;;17.07;100.00
59650;BME280;46162;57.568;25.814;2023-08-06T00:22:01;100649.72;;;17.05;100.00
59650;BME280;46162;57.568;25.814;2023-08-06T00:24:30;100655.84;;;17.07;100.00
59650;BME280;46162;57.568;25.814;2023-08-06T00:27:00;100659.91;;;17.18;100.00
59650;BME280;46162;57.568;25.814;2023-08-06T00:29:29;100659.59;;;17.28;100.00
59650;BME280;46162;57.568;25.814;2023-08-06T00:31:58;100647.97;;;17.19;100.00
59650;BME280;46162;57.568;25.814;2023-08-06T00:34:27;100642.13;;;17.22;100.00
59650;BME280;46162;57.568;25.814;2023-08-06T00:36:55;100640.78;;;17.39;100.00
59650;BME280;46162;57.568;25.814;2023-08-06T00:39:24;100633.53;;;17.25;100.00
59650;BME280;46162;57.568;25.814;2023-08-06T00:41:53;100632.38;;;17.34;100.00
59650;BME280;46162;57.568;25.814;2023-08-06T00:44:23;100629.28;;;17.44;100.00
59650;BME280;46162;57.568;25.814;2023-08-06T00:46:52;100627.25;;;17.25;100.00
59650;BME280;46162;57.568;25.814;2023-08-06T00:49:21;100622.38;;;17.20;100.00
59650;BME280;46162;57.568;25.814;2023-08-06T00:51:50;100623.03;;;17.22;100.00
59650;BME280;46162;57.568;25.814;2023-08-06T00:54:20;100618.88;;;17.05;100.00
59650;BME280;46162;57.568;25.814;2023-08-06T00:56:49;100626.34;;;17.17;100.00
59650;BME280;46162;57.568;25.814;2023-08-06T00:59:18;100631.91;;;17.31;100.00
59650;BME280;46162;57.568;25.814;2023-08-06T01:01:49;100608.72;;;17.20;100.00
59650;BME280;46162;57.568;25.814;2023-08-06T01:04:19;100612.84;;;17.09;100.00
59650;BME280;46162;57.568;25.814;2023-08-06T01:06:59;100617.50;;;17.15;100.00
59650;BME280;46162;57.568;25.814;2023-08-06T01:09:37;100618.88;;;17.26;100.00
59650;BME280;46162;57.568;25.814;2023-08-06T01:12:20;100623.53;;;17.32;100.00
59650;BME280;46162;57.568;25.814;2023-08-06T01:14:59;100625.59;;;17.30;100.00
59650;BME280;46162;57.568;25.814;2023-08-06T01:17:31;100618.06;;;17.32;100.00
59650;BME280;46162;57.568;25.814;2023-08-06T01:20:01;100609.03;;;17.32;100.00
59650;BME280;46162;57.568;25.814;2023-08-06T01:22:32;100603.00;;;17.36;100.00
59650;BME280;46162;57.568;25.814;2023-08-06T01:25:01;100599.97;;;17.25;100.00
59650;BME280;46162;57.568;25.814;2023-08-06T01:27:33;100602.50;;;17.26;100.00
59650;BME280;46162;57.568;25.814;2023-08-06T01:30:10;100622.09;;;17.36;100.00
59650;BME280;46162;57.568;25.814;2023-08-06T01:32:44;100634.44;;;17.32;100.00
59650;BME280;46162;57.568;25.814;2023-08-06T01:35:16;100610.44;;;17.21;100.00
59650;BME280;46162;57.568;25.814;2023-08-06T01:37:47;100611.84;;;17.38;100.00
59650;BME280;46162;57.568;25.814;2023-08-06T01:40:17;100606.66;;;17.50;100.00
59650;BME280;46162;57.568;25.814;2023-08-06T01:42:45;100595.50;;;17.45;100.00
59650;BME280;46162;57.568;25.814;2023-08-06T01:45:14;100585.31;;;17.32;100.00
59650;BME280;46162;57.568;25.814;2023-08-06T01:47:43;100566.94;;;17.48;100.00
59650;BME280;46162;57.568;25.814;2023-08-06T01:50:11;100543.25;;;17.20;100.00
59650;BME280;46162;57.568;25.814;2023-08-06T01:52:40;100526.06;;;17.19;100.00
59650;BME280;46162;57.568;25.814;2023-08-06T01:55:10;100515.31;;;17.18;100.00
59650;BME280;46162;57.568;25.814;2023-08-06T01:57:39;100521.00;;;17.16;100.00
59650;BME280;46162;57.568;25.814;2023-08-06T02:00:08;100519.34;;;17.22;100.00
59650;BME280;46162;57.568;25.814;2023-08-06T02:02:40;100499.19;;;17.23;100.00
59650;BME280;46162;57.568;25.814;2023-08-06T02:05:09;100492.06;;;17.22;100.00
59650;BME280;46162;57.568;25.814;2023-08-06T02:07:39;100483.69;;;17.24;100.00
59650;BME280;46162;57.568;25.814;2023-08-06T02:10:09;100436.63;;;17.15;100.00
59650;BME280;46162;57.568;25.814;2023-08-06T02:12:38;100427.00;;;17.19;100.00
59650;BME280;46162;57.568;25.814;2023-08-06T02:15:07;100430.38;;;17.21;100.00
59650;BME280;46162;57.568;25.814;2023-08-06T02:17:36;100408.06;;;17.11;100.00
59650;BME280;46162;57.568;25.814;2023-08-06T02:20:06;100455.31;;;17.18;100.00
59650;BME280;46162;57.568;25.814;2023-08-06T02:22:34;100497.75;;;17.27;100.00
59650;BME280;46162;57.568;25.814;2023-08-06T02:25:04;100522.97;;;17.29;100.00
59650;BME280;46162;57.568;25.814;2023-08-06T02:27:34;100553.34;;;17.19;100.00
59650;BME280;46162;57.568;25.814;2023-08-06T02:30:03;100582.75;;;17.24;100.00
59650;BME280;46162;57.568;25.814;2023-08-06T02:32:32;100604.50;;;17.17;100.00
59650;BME280;46162;57.568;25.814;2023-08-06T02:35:03;100604.44;;;17.11;100.00
59650;BME280;46162;57.568;25.814;2023-08-06T02:37:33;100582.19;;;17.07;100.00
59650;BME280;46162;57.568;25.814;2023-08-06T02:40:02;100574.66;;;17.09;100.00
59650;BME280;46162;57.568;25.814;2023-08-06T02:42:31;100572.19;;;17.14;100.00
59650;BME280;46162;57.568;25.814;2023-08-06T02:45:01;100561.69;;;17.18;100.00
59650;BME280;46162;57.568;25.814;2023-08-06T02:47:30;100560.94;;;17.24;100.00
59650;BME280;46162;57.568;25.814;2023-08-06T02:49:59;100576.31;;;17.32;100.00
59650;BME280;46162;57.568;25.814;2023-08-06T02:52:29;100580.22;;;17.23;100.00
59650;BME280;46162;57.568;25.814;2023-08-06T02:54:58;100586.50;;;17.23;100.00
59650;BME280;46162;57.568;25.814;2023-08-06T02:57:29;100595.88;;;17.42;100.00
59650;BME280;46162;57.568;25.814;2023-08-06T02:59:58;100590.84;;;17.39;100.00
59650;BME280;46162;57.568;25.814;2023-08-06T03:02:28;100586.03;;;17.41;100.00
59650;BME280;46162;57.568;25.814;2023-08-06T03:05:20;100588.53;;;17.42;100.00
59650;BME280;46162;57.568;25.814;2023-08-06T03:07:50;100586.06;;;17.48;100.00
59650;BME280;46162;57.568;25.814;2023-08-06T03:10:22;100570.31;;;17.50;100.00
59650;BME280;46162;57.568;25.814;2023-08-06T03:12:53;100570.53;;;17.48;100.00
59650;BME280;46162;57.568;25.814;2023-08-06T03:15:23;100561.06;;;17.44;100.00
59650;BME280;46162;57.568;25.814;2023-08-06T03:17:57;100535.19;;;17.40;100.00
59650;BME280;46162;57.568;25.814;2023-08-06T03:20:25;100536.72;;;17.49;100.00
59650;BME280;46162;57.568;25.814;2023-08-06T03:22:55;100546.88;;;17.62;100.00
59650;BME280;46162;57.568;25.814;2023-08-06T03:25:23;100542.66;;;17.59;100.00
59650;BME280;46162;57.568;25.814;2023-08-06T03:27:52;100541.38;;;17.55;100.00
59650;BME280;46162;57.568;25.814;2023-08-06T03:30:21;100544.50;;;17.52;100.00
59650;BME280;46162;57.568;25.814;2023-08-06T03:32:52;100543.72;;;17.58;100.00
59650;BME280;46162;57.568;25.814;2023-08-06T03:35:23;100541.19;;;17.57;100.00
59650;BME280;46162;57.568;25.814;2023-08-06T03:37:52;100540.13;;;17.58;100.00
59650;BME280;46162;57.568;25.814;2023-08-06T03:40:21;100544.16;;;17.62;100.00
59650;BME280;46162;57.568;25.814;2023-08-06T03:42:50;100543.63;;;17.80;100.00
59650;BME280;46162;57.568;25.814;2023-08-06T03:45:19;100527.28;;;17.87;100.00
59650;BME280;46162;57.568;25.814;2023-08-06T03:47:48;100526.88;;;17.83;100.00
59650;BME280;46162;57.568;25.814;2023-08-06T03:50:18;100529.34;;;17.78;100.00
59650;BME280;46162;57.568;25.814;2023-08-06T03:52:48;100528.00;;;17.67;100.00
59650;BME280;46162;57.568;25.814;2023-08-06T03:55:16;100507.75;;;17.83;100.00
59650;BME280;46162;57.568;25.814;2023-08-06T03:57:45;100526.91;;;17.96;100.00
59650;BME280;46162;57.568;25.814;2023-08-06T04:00:15;100544.50;;;17.80;100.00
59650;BME280;46162;57.568;25.814;2023-08-06T04:02:49;100516.72;;;17.77;100.00
59650;BME280;46162;57.568;25.814;2023-08-06T04:05:18;100515.94;;;17.90;100.00
59650;BME280;46162;57.568;25.814;2023-08-06T04:07:48;100497.66;;;17.90;100.00
59650;BME280;46162;57.568;25.814;2023-08-06T04:10:17;100483.81;;;17.92;100.00
59650;BME280;46162;57.568;25.814;2023-08-06T04:12:46;100477.28;;;17.86;100.00
59650;BME280;46162;57.568;25.814;2023-08-06T04:15:15;100462.75;;;17.79;100.00
59650;BME280;46162;57.568;25.814;2023-08-06T04:17:44;100474.25;;;17.68;100.00
59650;BME280;46162;57.568;25.814;2023-08-06T04:20:14;100499.88;;;17.67;100.00
59650;BME280;46162;57.568;25.814;2023-08-06T04:22:43;100505.97;;;17.75;100.00
59650;BME280;46162;57.568;25.814;2023-08-06T04:25:13;100509.63;;;17.82;100.00
59650;BME280;46162;57.568;25.814;2023-08-06T04:27:43;100533.94;;;17.77;100.00
59650;BME280;46162;57.568;25.814;2023-08-06T04:30:12;100526.50;;;17.93;100.00
59650;BME280;46162;57.568;25.814;2023-08-06T04:32:41;100532.34;;;17.90;100.00
59650;BME280;46162;57.568;25.814;2023-08-06T04:35:10;100534.50;;;18.01;100.00
59650;BME280;46162;57.568;25.814;2023-08-06T04:37:40;100519.75;;;17.89;100.00
59650;BME280;46162;57.568;25.814;2023-08-06T04:40:10;100517.66;;;17.97;100.00
59650;BME280;46162;57.568;25.814;2023-08-06T04:42:42;100515.78;;;17.98;100.00
59650;BME280;46162;57.568;25.814;2023-08-06T04:45:10;100513.09;;;18.11;100.00
59650;BME280;46162;57.568;25.814;2023-08-06T04:47:39;100509.75;;;18.16;100.00
59650;BME280;46162;57.568;25.814;2023-08-06T04:50:08;100511.44;;;18.23;100.00
59650;BME280;46162;57.568;25.814;2023-08-06T04:52:37;100507.69;;;18.31;100.00
59650;BME280;46162;57.568;25.814;2023-08-06T04:55:06;100503.47;;;18.29;100.00
59650;BME280;46162;57.568;25.814;2023-08-06T04:57:35;100487.50;;;18.25;100.00
59650;BME280;46162;57.568;25.814;2023-08-06T05:00:06;100487.94;;;18.36;100.00
59650;BME280;46162;57.568;25.814;2023-08-06T05:02:35;100493.41;;;18.49;100.00
59650;BME280;46162;57.568;25.814;2023-08-06T05:05:06;100478.28;;;18.53;100.00
59650;BME280;46162;57.568;25.814;2023-08-06T05:07:35;100467.34;;;18.40;100.00
59650;BME280;46162;57.568;25.814;2023-08-06T05:10:04;100472.81;;;18.40;100.00
59650;BME280;46162;57.568;25.814;2023-08-06T05:12:33;100468.81;;;18.49;100.00
59650;BME280;46162;57.568;25.814;2023-08-06T05:15:02;100455.16;;;18.42;100.00
59650;BME280;46162;57.568;25.814;2023-08-06T05:17:33;100447.16;;;18.47;100.00
59650;BME280;46162;57.568;25.814;2023-08-06T05:20:02;100449.66;;;18.49;100.00
59650;BME280;46162;57.568;25.814;2023-08-06T05:22:31;100454.28;;;18.42;100.00
59650;BME280;46162;57.568;25.814;2023-08-06T05:24:59;100451.16;;;18.58;100.00
59650;BME280;46162;57.568;25.814;2023-08-06T05:27:28;100454.28;;;18.68;100.00
59650;BME280;46162;57.568;25.814;2023-08-06T05:29:56;100444.66;;;18.79;100.00
59650;BME280;46162;57.568;25.814;2023-08-06T05:32:25;100445.66;;;18.72;100.00
59650;BME280;46162;57.568;25.814;2023-08-06T05:34:55;100437.47;;;18.72;100.00
59650;BME280;46162;57.568;25.814;2023-08-06T05:37:24;100445.91;;;18.77;100.00
59650;BME280;46162;57.568;25.814;2023-08-06T05:39:53;100439.59;;;18.76;100.00
59650;BME280;46162;57.568;25.814;2023-08-06T05:42:21;100446.75;;;18.84;100.00
59650;BME280;46162;57.568;25.814;2023-08-06T05:44:50;100429.28;;;18.85;100.00
59650;BME280;46162;57.568;25.814;2023-08-06T05:47:18;100429.50;;;18.97;100.00
59650;BME280;46162;57.568;25.814;2023-08-06T05:49:47;100425.25;;;19.01;100.00
59650;BME280;46162;57.568;25.814;2023-08-06T05:52:17;100431.16;;;19.04;100.00
59650;BME280;46162;57.568;25.814;2023-08-06T05:54:47;100430.28;;;19.04;100.00
59650;BME280;46162;57.568;25.814;2023-08-06T05:57:15;100436.00;;;19.09;100.00
59650;BME280;46162;57.568;25.814;2023-08-06T05:59:47;100423.34;;;19.01;100.00
59650;BME280;46162;57.568;25.814;2023-08-06T06:02:16;100425.88;;;19.03;100.00
59650;BME280;46162;57.568;25.814;2023-08-06T06:04:46;100434.09;;;19.09;100.00
59650;BME280;46162;57.568;25.814;2023-08-06T06:07:15;100431.97;;;19.11;100.00
59650;BME280;46162;57.568;25.814;2023-08-06T06:09:45;100428.19;;;19.12;100.00
59650;BME280;46162;57.568;25.814;2023-08-06T06:12:14;100421.44;;;19.22;100.00
59650;BME280;46162;57.568;25.814;2023-08-06T06:14:42;100420.97;;;19.31;100.00
59650;BME280;46162;57.568;25.814;2023-08-06T06:17:11;100415.06;;;19.28;100.00
59650;BME280;46162;57.568;25.814;2023-08-06T06:19:40;100419.50;;;19.29;100.00
59650;BME280;46162;57.568;25.814;2023-08-06T06:22:09;100410.88;;;19.32;100.00
59650;BME280;46162;57.568;25.814;2023-08-06T06:24:38;100401.56;;;19.33;100.00
59650;BME280;46162;57.568;25.814;2023-08-06T06:27:09;100416.06;;;19.47;100.00
59650;BME280;46162;57.568;25.814;2023-08-06T06:29:37;100414.56;;;19.51;100.00
59650;BME280;46162;57.568;25.814;2023-08-06T06:32:06;100394.38;;;19.45;100.00
59650;BME280;46162;57.568;25.814;2023-08-06T06:34:35;100390.53;;;19.60;100.00
59650;BME280;46162;57.568;25.814;2023-08-06T06:37:04;100393.50;;;19.51;100.00
59650;BME280;46162;57.568;25.814;2023-08-06T06:39:34;100395.56;;;19.63;100.00
59650;BME280;46162;57.568;25.814;2023-08-06T06:42:03;100388.84;;;19.59;100.00
59650;BME280;46162;57.568;25.814;2023-08-06T06:44:41;100382.47;;;19.65;100.00
59650;BME280;46162;57.568;25.814;2023-08-06T06:47:10;100379.44;;;19.86;100.00
59650;BME280;46162;57.568;25.814;2023-08-06T06:49:40;100372.06;;;19.87;100.00
59650;BME280;46162;57.568;25.814;2023-08-06T06:52:09;100365.09;;;19.91;100.00
59650;BME280;46162;57.568;25.814;2023-08-06T06:54:40;100360.47;;;19.85;100.00
59650;BME280;46162;57.568;25.814;2023-08-06T06:57:09;100356.25;;;19.89;100.00
59650;BME280;46162;57.568;25.814;2023-08-06T06:59:40;100352.50;;;19.83;100.00
59650;BME280;46162;57.568;25.814;2023-08-06T07:02:11;100344.47;;;19.88;100.00
59650;BME280;46162;57.568;25.814;2023-08-06T07:04:40;100337.06;;;19.89;100.00
59650;BME280;46162;57.568;25.814;2023-08-06T07:07:09;100338.28;;;19.93;100.00
59650;BME280;46162;57.568;25.814;2023-08-06T07:09:40;100330.47;;;19.96;100.00
59650;BME280;46162;57.568;25.814;2023-08-06T07:12:10;100316.94;;;20.02;100.00
59650;BME280;46162;57.568;25.814;2023-08-06T07:14:42;100318.91;;;20.19;100.00
59650;BME280;46162;57.568;25.814;2023-08-06T07:17:11;100317.50;;;20.35;100.00
59650;BME280;46162;57.568;25.814;2023-08-06T07:19:39;100314.53;;;20.37;100.00
59650;BME280;46162;57.568;25.814;2023-08-06T07:22:08;100310.38;;;20.53;100.00
59650;BME280;46162;57.568;25.814;2023-08-06T07:24:37;100308.28;;;20.55;100.00
59650;BME280;46162;57.568;25.814;2023-08-06T07:27:06;100292.69;;;20.49;100.00
59650;BME280;46162;57.568;25.814;2023-08-06T07:29:35;100293.94;;;20.71;100.00
59650;BME280;46162;57.568;25.814;2023-08-06T07:32:06;100290.69;;;20.63;100.00
59650;BME280;46162;57.568;25.814;2023-08-06T07:34:35;100291.88;;;20.67;100.00
59650;BME280;46162;57.568;25.814;2023-08-06T07:37:04;100283.13;;;20.76;100.00
59650;BME280;46162;57.568;25.814;2023-08-06T07:39:33;100288.16;;;20.61;100.00
59650;BME280;46162;57.568;25.814;2023-08-06T07:42:02;100300.66;;;20.75;100.00
59650;BME280;46162;57.568;25.814;2023-08-06T07:44:32;100290.06;;;20.79;100.00
59650;BME280;46162;57.568;25.814;2023-08-06T07:47:01;100287.22;;;21.04;100.00
59650;BME280;46162;57.568;25.814;2023-08-06T07:49:31;100289.38;;;21.02;100.00
59650;BME280;46162;57.568;25.814;2023-08-06T07:52:00;100287.44;;;21.21;100.00
59650;BME280;46162;57.568;25.814;2023-08-06T07:54:28;100286.78;;;21.07;100.00
59650;BME280;46162;57.568;25.814;2023-08-06T07:56:59;100288.38;;;21.15;100.00
59650;BME280;46162;57.568;25.814;2023-08-06T07:59:28;100288.84;;;21.12;100.00
59650;BME280;46162;57.568;25.814;2023-08-06T08:01:57;100287.56;;;21.26;100.00
59650;BME280;46162;57.568;25.814;2023-08-06T08:04:26;100283.41;;;21.54;100.00
59650;BME280;46162;57.568;25.814;2023-08-06T08:06:56;100280.97;;;21.76;100.00
59650;BME280;46162;57.568;25.814;2023-08-06T08:09:25;100277.72;;;21.67;100.00
59650;BME280;46162;57.568;25.814;2023-08-06T08:11:53;100272.13;;;21.74;100.00
59650;BME280;46162;57.568;25.814;2023-08-06T08:14:27;100275.47;;;21.64;100.00
59650;BME280;46162;57.568;25.814;2023-08-06T08:16:56;100281.47;;;21.84;100.00
59650;BME280;46162;57.568;25.814;2023-08-06T08:19:24;100276.81;;;21.85;100.00
59650;BME280;46162;57.568;25.814;2023-08-06T08:21:53;100277.88;;;21.84;100.00
59650;BME280;46162;57.568;25.814;2023-08-06T08:24:23;100279.94;;;21.88;100.00
59650;BME280;46162;57.568;25.814;2023-08-06T08:26:53;100270.03;;;21.99;100.00
59650;BME280;46162;57.568;25.814;2023-08-06T08:29:22;100269.41;;;21.97;100.00
59650;BME280;46162;57.568;25.814;2023-08-06T08:31:51;100268.25;;;22.17;100.00
59650;BME280;46162;57.568;25.814;2023-08-06T08:34:20;100267.84;;;22.13;100.00
59650;BME280;46162;57.568;25.814;2023-08-06T08:36:49;100264.44;;;22.41;100.00
59650;BME280;46162;57.568;25.814;2023-08-06T08:39:18;100274.38;;;22.30;100.00
59650;BME280;46162;57.568;25.814;2023-08-06T08:41:48;100272.47;;;22.31;100.00
59650;BME280;46162;57.568;25.814;2023-08-06T08:44:17;100269.44;;;22.44;100.00
59650;BME280;46162;57.568;25.814;2023-08-06T08:46:47;100265.97;;;22.49;100.00
59650;BME280;46162;57.568;25.814;2023-08-06T08:49:17;100264.50;;;22.70;100.00
59650;BME280;46162;57.568;25.814;2023-08-06T08:51:46;100258.53;;;22.73;100.00
59650;BME280;46162;57.568;25.814;2023-08-06T08:54:16;100262.00;;;22.80;100.00
59650;BME280;46162;57.568;25.814;2023-08-06T08:56:47;100259.34;;;22.85;100.00
59650;BME280;46162;57.568;25.814;2023-08-06T08:59:17;100255.09;;;22.94;100.00
59650;BME280;46162;57.568;25.814;2023-08-06T09:01:48;100259.88;;;23.11;100.00
59650;BME280;46162;57.568;25.814;2023-08-06T09:04:20;100243.31;;;23.23;100.00
59650;BME280;46162;57.568;25.814;2023-08-06T09:06:52;100250.75;;;23.22;100.00
59650;BME280;46162;57.568;25.814;2023-08-06T09:09:26;100246.84;;;23.35;100.00
59650;BME280;46162;57.568;25.814;2023-08-06T09:12:00;100236.16;;;23.38;100.00
59650;BME280;46162;57.568;25.814;2023-08-06T09:14:30;100243.81;;;23.65;100.00
59650;BME280;46162;57.568;25.814;2023-08-06T09:16:59;100244.25;;;23.91;100.00
59650;BME280;46162;57.568;25.814;2023-08-06T09:19:28;100242.44;;;23.79;100.00
59650;BME280;46162;57.568;25.814;2023-08-06T09:21:57;100240.00;;;24.17;100.00
59650;BME280;46162;57.568;25.814;2023-08-06T09:24:26;100237.06;;;24.23;100.00
59650;BME280;46162;57.568;25.814;2023-08-06T09:26:55;100237.91;;;24.24;100.00
59650;BME280;46162;57.568;25.814;2023-08-06T09:29:26;100226.09;;;24.29;100.00
59650;BME280;46162;57.568;25.814;2023-08-06T09:31:59;100230.66;;;24.40;100.00
59650;BME280;46162;57.568;25.814;2023-08-06T09:34:28;100231.31;;;24.64;100.00
59650;BME280;46162;57.568;25.814;2023-08-06T09:36:56;100226.09;;;24.67;100.00
59650;BME280;46162;57.568;25.814;2023-08-06T09:39:26;100222.69;;;24.60;100.00
59650;BME280;46162;57.568;25.814;2023-08-06T09:41:57;100211.16;;;24.63;100.00
59650;BME280;46162;57.568;25.814;2023-08-06T09:44:28;100208.00;;;24.77;100.00
59650;BME280;46162;57.568;25.814;2023-08-06T09:46:58;100201.06;;;24.74;100.00
59650;BME280;46162;57.568;25.814;2023-08-06T09:49:28;100196.94;;;24.77;100.00
59650;BME280;46162;57.568;25.814;2023-08-06T09:51:57;100193.00;;;24.95;100.00
59650;BME280;46162;57.568;25.814;2023-08-06T09:54:27;100190.56;;;25.20;100.00
59650;BME280;46162;57.568;25.814;2023-08-06T09:56:57;100190.84;;;25.24;100.00
59650;BME280;46162;57.568;25.814;2023-08-06T09:59:28;100188.72;;;25.31;100.00
59650;BME280;46162;57.568;25.814;2023-08-06T10:01:58;100187.81;;;25.52;100.00
59650;BME280;46162;57.568;25.814;2023-08-06T10:04:29;100185.44;;;25.66;100.00
59650;BME280;46162;57.568;25.814;2023-08-06T10:07:07;100177.88;;;25.57;100.00
59650;BME280;46162;57.568;25.814;2023-08-06T10:09:35;100174.69;;;25.70;100.00
59650;BME280;46162;57.568;25.814;2023-08-06T10:12:05;100180.03;;;25.82;100.00
59650;BME280;46162;57.568;25.814;2023-08-06T10:14:36;100173.84;;;26.02;100.00
59650;BME280;46162;57.568;25.814;2023-08-06T10:17:07;100171.94;;;26.07;100.00
59650;BME280;46162;57.568;25.814;2023-08-06T10:19:36;100175.59;;;26.18;100.00
59650;BME280;46162;57.568;25.814;2023-08-06T10:22:08;100166.53;;;26.33;100.00
59650;BME280;46162;57.568;25.814;2023-08-06T10:24:51;100167.56;;;26.16;100.00
59650;BME280;46162;57.568;25.814;2023-08-06T10:27:21;100168.84;;;26.46;100.00
59650;BME280;46162;57.568;25.814;2023-08-06T10:29:52;100166.88;;;26.42;100.00
59650;BME280;46162;57.568;25.814;2023-08-06T10:32:51;100160.53;;;26.51;100.00
59650;BME280;46162;57.568;25.814;2023-08-06T10:35:35;100154.19;;;26.51;100.00
59650;BME280;46162;57.568;25.814;2023-08-06T10:38:05;100157.84;;;26.56;100.00
59650;BME280;46162;57.568;25.814;2023-08-06T10:40:36;100150.97;;;26.74;100.00
59650;BME280;46162;57.568;25.814;2023-08-06T10:43:05;100155.47;;;26.96;100.00
59650;BME280;46162;57.568;25.814;2023-08-06T10:45:37;100151.00;;;26.90;100.00
59650;BME280;46162;57.568;25.814;2023-08-06T10:48:07;100146.34;;;27.06;100.00
59650;BME280;46162;57.568;25.814;2023-08-06T10:50:35;100141.63;;;27.11;100.00
59650;BME280;46162;57.568;25.814;2023-08-06T10:53:05;100144.13;;;27.18;100.00
59650;BME280;46162;57.568;25.814;2023-08-06T10:55:35;100146.09;;;27.22;100.00
59650;BME280;46162;57.568;25.814;2023-08-06T10:58:05;100142.75;;;27.15;100.00
59650;BME280;46162;57.568;25.814;2023-08-06T11:00:34;100131.13;;;27.18;100.00
59650;BME280;46162;57.568;25.814;2023-08-06T11:03:05;100128.94;;;27.31;100.00
59650;BME280;46162;57.568;25.814;2023-08-06T11:05:34;100121.69;;;27.35;100.00
59650;BME280;46162;57.568;25.814;2023-08-06T11:08:03;100116.72;;;27.47;100.00
59650;BME280;46162;57.568;25.814;2023-08-06T11:10:33;100113.94;;;27.62;100.00
59650;BME280;46162;57.568;25.814;2023-08-06T11:13:02;100112.84;;;27.58;100.00
59650;BME280;46162;57.568;25.814;2023-08-06T11:15:32;100108.69;;;27.56;100.00
59650;BME280;46162;57.568;25.814;2023-08-06T11:18:01;100108.97;;;27.34;100.00
59650;BME280;46162;57.568;25.814;2023-08-06T11:20:31;100105.63;;;27.47;100.00
59650;BME280;46162;57.568;25.814;2023-08-06T11:23:01;100101.72;;;27.63;100.00
59650;BME280;46162;57.568;25.814;2023-08-06T11:25:30;100100.38;;;27.51;100.00
59650;BME280;46162;57.568;25.814;2023-08-06T11:28:01;100090.38;;;27.34;100.00
59650;BME280;46162;57.568;25.814;2023-08-06T11:30:29;100101.47;;;27.50;100.00
59650;BME280;46162;57.568;25.814;2023-08-06T11:32:58;100086.75;;;27.59;100.00
59650;BME280;46162;57.568;25.814;2023-08-06T11:35:26;100096.19;;;27.58;100.00
59650;BME280;46162;57.568;25.814;2023-08-06T11:37:57;100091.22;;;27.55;100.00
59650;BME280;46162;57.568;25.814;2023-08-06T11:40:25;100080.94;;;27.56;100.00
59650;BME280;46162;57.568;25.814;2023-08-06T11:42:54;100086.19;;;27.83;100.00
59650;BME280;46162;57.568;25.814;2023-08-06T11:45:24;100082.25;;;28.04;100.00
59650;BME280;46162;57.568;25.814;2023-08-06T11:47:53;100084.53;;;27.92;100.00
59650;BME280;46162;57.568;25.814;2023-08-06T11:50:23;100071.50;;;27.82;100.00
59650;BME280;46162;57.568;25.814;2023-08-06T11:52:58;100076.50;;;27.65;100.00
59650;BME280;46162;57.568;25.814;2023-08-06T11:55:28;100072.06;;;27.54;100.00
59650;BME280;46162;57.568;25.814;2023-08-06T11:57:57;100066.81;;;27.62;100.00
59650;BME280;46162;57.568;25.814;2023-08-06T12:00:26;100057.09;;;27.70;100.00
59650;BME280;46162;57.568;25.814;2023-08-06T12:02:56;100060.66;;;27.91;100.00
59650;BME280;46162;57.568;25.814;2023-08-06T12:05:29;100062.88;;;27.79;100.00
59650;BME280;46162;57.568;25.814;2023-08-06T12:08:02;100058.16;;;27.79;100.00
59650;BME280;46162;57.568;25.814;2023-08-06T12:10:32;100062.06;;;27.68;100.00
59650;BME280;46162;57.568;25.814;2023-08-06T12:13:01;100056.53;;;27.68;100.00
59650;BME280;46162;57.568;25.814;2023-08-06T12:15:30;100057.13;;;27.44;100.00
59650;BME280;46162;57.568;25.814;2023-08-06T12:17:59;100050.22;;;27.27;100.00
59650;BME280;46162;57.568;25.814;2023-08-06T12:20:28;100054.09;;;27.20;100.00
59650;BME280;46162;57.568;25.814;2023-08-06T12:22:57;100046.28;;;27.17;100.00
59650;BME280;46162;57.568;25.814;2023-08-06T12:25:27;100037.16;;;27.17;100.00
59650;BME280;46162;57.568;25.814;2023-08-06T12:27:56;100039.09;;;27.57;100.00
59650;BME280;46162;57.568;25.814;2023-08-06T12:30:25;100038.56;;;27.45;100.00
59650;BME280;46162;57.568;25.814;2023-08-06T12:32:53;100042.72;;;27.42;100.00
59650;BME280;46162;57.568;25.814;2023-08-06T12:35:22;100041.88;;;27.52;100.00
59650;BME280;46162;57.568;25.814;2023-08-06T12:37:53;100036.31;;;27.57;100.00
59650;BME280;46162;57.568;25.814;2023-08-06T12:40:21;100033.88;;;27.35;100.00
59650;BME280;46162;57.568;25.814;2023-08-06T12:43:05;100033.00;;;27.14;100.00
59650;BME280;46162;57.568;25.814;2023-08-06T12:45:33;100028.28;;;26.99;100.00